sensor_id;sensor_type;location;lat;lon;timestamp;pressure;altitude;pressure_sealevel;temperature;humidity
65897;BME280;52677;50.898;10.854;2022-08-19T00:00:40;98151.03;;;18.73;90.68
65897;BME280;52677;50.898;10.854;2022-08-19T00:02:41;98147.53;;;18.69;90.75
65897;BME280;52677;50.898;10.854;2022-08-19T00:04:41;98151.66;;;18.65;90.94
65897;BME280;52677;50.898;10.854;2022-08-19T00:06:43;98139.56;;;18.68;90.64
65897;BME280;52677;50.898;10.854;2022-08-19T00:08:44;98147.97;;;18.68;90.59
65897;BME280;52677;50.898;10.854;2022-08-19T00:10:44;98146.84;;;18.65;90.73
65897;BME280;52677;50.898;10.854;2022-08-19T00:12:46;98141.16;;;18.69;90.63
65897;BME280;52677;50.898;10.854;2022-08-19T00:14:46;98146.41;;;18.67;90.66
65897;BME280;52677;50.898;10.854;2022-08-19T00:16:47;98140.88;;;18.63;91.11
65897;BME280;52677;50.898;10.854;2022-08-19T00:18:48;98147.78;;;18.59;91.39
65897;BME280;52677;50.898;10.854;2022-08-19T00:20:48;98137.81;;;18.58;91.60
65897;BME280;52677;50.898;10.854;2022-08-19T00:22:49;98139.72;;;18.61;91.40
65897;BME280;52677;50.898;10.854;2022-08-19T00:24:49;98143.31;;;18.61;91.29
65897;BME280;52677;50.898;10.854;2022-08-19T00:26:50;98138.16;;;18.60;91.74
65897;BME280;52677;50.898;10.854;2022-08-19T00:28:51;98139.06;;;18.57;91.83
65897;BME280;52677;50.898;10.854;2022-08-19T00:30:51;98126.28;;;18.56;92.05
65897;BME280;52677;50.898;10.854;2022-08-19T00:32:53;98125.50;;;18.55;92.03
65897;BME280;52677;50.898;10.854;2022-08-19T00:34:57;98120.75;;;18.52;91.83
65897;BME280;52677;50.898;10.854;2022-08-19T00:36:57;98118.31;;;18.54;91.60
65897;BME280;52677;50.898;10.854;2022-08-19T00:39:00;98117.09;;;18.55;91.55
65897;BME280;52677;50.898;10.854;2022-08-19T00:41:00;98109.13;;;18.53;91.59
65897;BME280;52677;50.898;10.854;2022-08-19T00:43:01;98110.69;;;18.55;91.71
65897;BME280;52677;50.898;10.854;2022-08-19T00:45:10;98112.59;;;18.58;91.30
65897;BME280;52677;50.898;10.854;2022-08-19T00:47:12;98110.59;;;18.58;91.58
65897;BME280;52677;50.898;10.854;2022-08-19T00:51:19;98109.91;;;18.54;92.05
65897;BME280;52677;50.898;10.854;2022-08-19T00:53:22;98099.91;;;18.53;91.96
65897;BME280;52677;50.898;10.854;2022-08-19T00:55:26;98106.31;;;18.53;92.02
65897;BME280;52677;50.898;10.854;2022-08-19T00:57:40;98112.72;;;18.54;92.15
65897;BME280;52677;50.898;10.854;2022-08-19T00:59:43;98109.47;;;18.56;91.72
65897;BME280;52677;50.898;10.854;2022-08-19T01:01:46;98108.75;;;18.51;92.03
65897;BME280;52677;50.898;10.854;2022-08-19T01:03:46;98108.31;;;18.53;91.92
65897;BME280;52677;50.898;10.854;2022-08-19T01:05:47;98110.69;;;18.55;92.04
65897;BME280;52677;50.898;10.854;2022-08-19T01:07:49;98111.03;;;18.57;91.78
65897;BME280;52677;50.898;10.854;2022-08-19T01:09:51;98117.75;;;18.59;91.73
65897;BME280;52677;50.898;10.854;2022-08-19T01:11:52;98106.22;;;18.57;91.51
65897;BME280;52677;50.898;10.854;2022-08-19T01:13:53;98104.66;;;18.56;91.57
65897;BME280;52677;50.898;10.854;2022-08-19T01:15:57;98112.16;;;18.59;91.32
65897;BME280;52677;50.898;10.854;2022-08-19T01:18:07;98109.34;;;18.59;91.15
65897;BME280;52677;50.898;10.854;2022-08-19T01:20:15;98097.69;;;18.61;91.11
65897;BME280;52677;50.898;10.854;2022-08-19T01:24:16;98091.25;;;18.64;90.97
65897;BME280;52677;50.898;10.854;2022-08-19T01:26:21;98084.47;;;18.61;91.05
65897;BME280;52677;50.898;10.854;2022-08-19T01:28:25;98088.88;;;18.62;90.85
65897;BME280;52677;50.898;10.854;2022-08-19T01:30:29;98086.88;;;18.63;90.49
65897;BME280;52677;50.898;10.854;2022-08-19T01:32:30;98082.84;;;18.64;89.99
65897;BME280;52677;50.898;10.854;2022-08-19T01:34:30;98089.22;;;18.64;90.49
65897;BME280;52677;50.898;10.854;2022-08-19T01:36:32;98084.06;;;18.63;90.69
65897;BME280;52677;50.898;10.854;2022-08-19T01:38:37;98080.91;;;18.61;90.24
65897;BME280;52677;50.898;10.854;2022-08-19T01:40:39;98074.88;;;18.62;90.43
65897;BME280;52677;50.898;10.854;2022-08-19T01:42:40;98085.63;;;18.64;90.25
65897;BME280;52677;50.898;10.854;2022-08-19T01:44:41;98084.47;;;18.61;90.60
65897;BME280;52677;50.898;10.854;2022-08-19T01:46:42;98094.13;;;18.60;89.74
65897;BME280;52677;50.898;10.854;2022-08-19T01:48:44;98093.25;;;18.63;89.46
65897;BME280;52677;50.898;10.854;2022-08-19T01:50:44;98095.59;;;18.65;89.32
65897;BME280;52677;50.898;10.854;2022-08-19T01:52:45;98099.56;;;18.67;89.58
65897;BME280;52677;50.898;10.854;2022-08-19T01:54:45;98101.13;;;18.68;89.52
65897;BME280;52677;50.898;10.854;2022-08-19T01:56:46;98089.22;;;18.64;90.30
65897;BME280;52677;50.898;10.854;2022-08-19T01:58:53;98089.66;;;18.63;90.37
65897;BME280;52677;50.898;10.854;2022-08-19T02:00:54;98078.53;;;18.59;90.14
65897;BME280;52677;50.898;10.854;2022-08-19T02:02:55;98083.47;;;18.55;90.83
65897;BME280;52677;50.898;10.854;2022-08-19T02:04:55;98089.84;;;18.56;90.84
65897;BME280;52677;50.898;10.854;2022-08-19T02:06:57;98081.09;;;18.53;90.44
65897;BME280;52677;50.898;10.854;2022-08-19T02:08:58;98070.91;;;18.60;90.90
65897;BME280;52677;50.898;10.854;2022-08-19T02:10:58;98058.25;;;18.55;91.06
65897;BME280;52677;50.898;10.854;2022-08-19T02:12:59;98055.53;;;18.51;91.07
65897;BME280;52677;50.898;10.854;2022-08-19T02:14:59;98061.31;;;18.44;91.99
65897;BME280;52677;50.898;10.854;2022-08-19T02:17:02;98052.69;;;18.39;92.36
65897;BME280;52677;50.898;10.854;2022-08-19T02:19:03;98054.34;;;18.36;92.51
65897;BME280;52677;50.898;10.854;2022-08-19T02:21:04;98056.47;;;18.32;92.79
65897;BME280;52677;50.898;10.854;2022-08-19T02:23:05;98058.03;;;18.33;92.24
65897;BME280;52677;50.898;10.854;2022-08-19T02:25:06;98052.53;;;18.30;93.29
65897;BME280;52677;50.898;10.854;2022-08-19T02:27:06;98053.31;;;18.30;93.53
65897;BME280;52677;50.898;10.854;2022-08-19T02:29:07;98047.78;;;18.27;93.17
65897;BME280;52677;50.898;10.854;2022-08-19T02:31:13;98053.31;;;18.30;93.71
65897;BME280;52677;50.898;10.854;2022-08-19T02:33:15;98053.91;;;18.38;94.00
65897;BME280;52677;50.898;10.854;2022-08-19T02:35:16;98047.72;;;18.30;94.71
65897;BME280;52677;50.898;10.854;2022-08-19T02:37:16;98046.16;;;18.29;95.17
65897;BME280;52677;50.898;10.854;2022-08-19T02:39:35;98039.06;;;18.24;95.32
65897;BME280;52677;50.898;10.854;2022-08-19T02:41:35;98040.53;;;18.29;95.30
65897;BME280;52677;50.898;10.854;2022-08-19T02:43:36;98042.97;;;18.27;95.28
65897;BME280;52677;50.898;10.854;2022-08-19T02:45:38;98046.56;;;18.28;95.87
65897;BME280;52677;50.898;10.854;2022-08-19T02:47:41;98050.25;;;18.24;95.87
65897;BME280;52677;50.898;10.854;2022-08-19T02:49:42;98059.09;;;18.23;96.44
65897;BME280;52677;50.898;10.854;2022-08-19T02:51:45;98057.59;;;18.18;96.71
65897;BME280;52677;50.898;10.854;2022-08-19T02:53:46;98069.16;;;18.20;96.97
65897;BME280;52677;50.898;10.854;2022-08-19T02:55:47;98067.56;;;18.19;97.33
65897;BME280;52677;50.898;10.854;2022-08-19T02:57:48;98072.38;;;18.19;96.58
65897;BME280;52677;50.898;10.854;2022-08-19T02:59:49;98066.00;;;18.18;96.31
65897;BME280;52677;50.898;10.854;2022-08-19T03:01:49;98066.09;;;18.15;96.47
65897;BME280;52677;50.898;10.854;2022-08-19T03:03:50;98063.31;;;18.15;96.82
65897;BME280;52677;50.898;10.854;2022-08-19T03:05:51;98074.06;;;18.16;96.69
65897;BME280;52677;50.898;10.854;2022-08-19T03:07:51;98082.91;;;18.15;96.51
65897;BME280;52677;50.898;10.854;2022-08-19T03:09:51;98082.47;;;18.16;96.42
65897;BME280;52677;50.898;10.854;2022-08-19T03:11:52;98085.34;;;18.13;96.89
65897;BME280;52677;50.898;10.854;2022-08-19T03:13:53;98090.59;;;18.11;97.08
65897;BME280;52677;50.898;10.854;2022-08-19T03:15:54;98083.41;;;18.10;97.07
65897;BME280;52677;50.898;10.854;2022-08-19T03:17:54;98086.16;;;18.13;96.85
65897;BME280;52677;50.898;10.854;2022-08-19T03:19:55;98087.38;;;18.12;97.11
65897;BME280;52677;50.898;10.854;2022-08-19T03:21:55;98092.25;;;18.08;97.39
65897;BME280;52677;50.898;10.854;2022-08-19T03:23:57;98099.44;;;18.09;97.01
65897;BME280;52677;50.898;10.854;2022-08-19T03:25:58;98102.22;;;18.09;97.27
65897;BME280;52677;50.898;10.854;2022-08-19T03:27:59;98097.50;;;18.06;97.38
65897;BME280;52677;50.898;10.854;2022-08-19T03:29:59;98109.50;;;18.07;97.71
65897;BME280;52677;50.898;10.854;2022-08-19T03:32:02;98107.81;;;18.09;97.60
65897;BME280;52677;50.898;10.854;2022-08-19T03:34:03;98104.34;;;18.05;97.30
65897;BME280;52677;50.898;10.854;2022-08-19T03:36:09;98107.94;;;18.06;97.24
65897;BME280;52677;50.898;10.854;2022-08-19T03:38:10;98106.88;;;18.00;97.95
65897;BME280;52677;50.898;10.854;2022-08-19T03:40:10;98100.66;;;17.92;97.98
65897;BME280;52677;50.898;10.854;2022-08-19T03:42:11;98109.84;;;17.92;98.13
65897;BME280;52677;50.898;10.854;2022-08-19T03:44:17;98115.00;;;17.94;97.96
65897;BME280;52677;50.898;10.854;2022-08-19T03:46:20;98107.81;;;17.93;98.08
65897;BME280;52677;50.898;10.854;2022-08-19T03:48:21;98115.44;;;17.92;97.75
65897;BME280;52677;50.898;10.854;2022-08-19T03:50:21;98122.25;;;17.91;97.79
65897;BME280;52677;50.898;10.854;2022-08-19T03:52:22;98121.91;;;17.89;97.82
65897;BME280;52677;50.898;10.854;2022-08-19T03:54:23;98129.44;;;17.92;97.33
65897;BME280;52677;50.898;10.854;2022-08-19T03:56:25;98123.81;;;17.92;97.82
65897;BME280;52677;50.898;10.854;2022-08-19T03:58:28;98137.38;;;17.94;97.72
65897;BME280;52677;50.898;10.854;2022-08-19T04:00:31;98135.66;;;18.00;97.78
65897;BME280;52677;50.898;10.854;2022-08-19T04:02:33;98136.44;;;18.01;97.84
65897;BME280;52677;50.898;10.854;2022-08-19T04:04:33;98142.47;;;17.99;96.95
65897;BME280;52677;50.898;10.854;2022-08-19T04:06:36;98141.59;;;18.02;97.14
65897;BME280;52677;50.898;10.854;2022-08-19T04:08:40;98136.78;;;18.03;97.32
65897;BME280;52677;50.898;10.854;2022-08-19T04:10:40;98138.94;;;17.95;97.89
65897;BME280;52677;50.898;10.854;2022-08-19T04:12:42;98140.47;;;18.00;98.06
65897;BME280;52677;50.898;10.854;2022-08-19T04:14:42;98140.63;;;17.92;98.12
65897;BME280;52677;50.898;10.854;2022-08-19T04:16:43;98133.44;;;17.91;98.06
65897;BME280;52677;50.898;10.854;2022-08-19T04:18:44;98140.56;;;17.96;98.45
65897;BME280;52677;50.898;10.854;2022-08-19T04:20:46;98139.50;;;17.90;98.96
65897;BME280;52677;50.898;10.854;2022-08-19T04:22:47;98132.66;;;17.91;98.78
65897;BME280;52677;50.898;10.854;2022-08-19T04:24:48;98136.25;;;17.91;99.29
65897;BME280;52677;50.898;10.854;2022-08-19T04:26:48;98138.53;;;17.96;99.19
65897;BME280;52677;50.898;10.854;2022-08-19T04:28:49;98126.19;;;17.94;99.49
65897;BME280;52677;50.898;10.854;2022-08-19T04:30:53;98130.66;;;17.91;99.77
65897;BME280;52677;50.898;10.854;2022-08-19T04:32:54;98133.78;;;17.93;99.53
65897;BME280;52677;50.898;10.854;2022-08-19T04:34:54;98135.81;;;17.93;99.42
65897;BME280;52677;50.898;10.854;2022-08-19T04:36:59;98130.75;;;17.88;100.00
65897;BME280;52677;50.898;10.854;2022-08-19T04:39:03;98125.50;;;17.90;99.63
65897;BME280;52677;50.898;10.854;2022-08-19T04:41:04;98131.88;;;17.90;99.96
65897;BME280;52677;50.898;10.854;2022-08-19T04:43:23;98118.66;;;17.91;100.00
65897;BME280;52677;50.898;10.854;2022-08-19T04:45:23;98117.88;;;17.90;100.00
65897;BME280;52677;50.898;10.854;2022-08-19T04:47:24;98121.13;;;17.89;100.00
65897;BME280;52677;50.898;10.854;2022-08-19T04:49:24;98124.28;;;17.91;100.00
65897;BME280;52677;50.898;10.854;2022-08-19T04:51:25;98128.19;;;17.93;100.00
65897;BME280;52677;50.898;10.854;2022-08-19T04:53:27;98126.97;;;17.94;100.00
65897;BME280;52677;50.898;10.854;2022-08-19T04:55:28;98132.94;;;17.96;100.00
65897;BME280;52677;50.898;10.854;2022-08-19T04:57:29;98119.72;;;17.97;100.00
65897;BME280;52677;50.898;10.854;2022-08-19T04:59:29;98119.72;;;17.97;100.00
65897;BME280;52677;50.898;10.854;2022-08-19T05:01:31;98125.34;;;17.97;100.00
65897;BME280;52677;50.898;10.854;2022-08-19T05:03:32;98132.41;;;18.02;100.00
65897;BME280;52677;50.898;10.854;2022-08-19T05:05:33;98117.00;;;17.93;100.00
65897;BME280;52677;50.898;10.854;2022-08-19T05:07:38;98131.78;;;17.94;100.00
65897;BME280;52677;50.898;10.854;2022-08-19T05:09:41;98127.84;;;17.91;100.00
65897;BME280;52677;50.898;10.854;2022-08-19T05:11:42;98129.69;;;17.98;100.00
65897;BME280;52677;50.898;10.854;2022-08-19T05:13:43;98131.63;;;18.01;100.00
65897;BME280;52677;50.898;10.854;2022-08-19T05:15:54;98127.75;;;17.95;100.00
65897;BME280;52677;50.898;10.854;2022-08-19T05:17:55;98133.72;;;17.97;100.00
65897;BME280;52677;50.898;10.854;2022-08-19T05:20:13;98138.44;;;18.00;100.00
65897;BME280;52677;50.898;10.854;2022-08-19T05:22:45;98127.59;;;18.02;100.00
65897;BME280;52677;50.898;10.854;2022-08-19T05:24:46;98139.22;;;18.01;100.00
65897;BME280;52677;50.898;10.854;2022-08-19T05:26:48;98140.81;;;18.02;100.00
65897;BME280;52677;50.898;10.854;2022-08-19T05:28:49;98152.72;;;18.06;100.00
65897;BME280;52677;50.898;10.854;2022-08-19T05:30:49;98151.50;;;18.07;100.00
65897;BME280;52677;50.898;10.854;2022-08-19T05:32:50;98164.34;;;18.04;100.00
65897;BME280;52677;50.898;10.854;2022-08-19T05:34:51;98145.63;;;18.01;100.00
65897;BME280;52677;50.898;10.854;2022-08-19T05:36:58;98145.97;;;18.03;100.00
65897;BME280;52677;50.898;10.854;2022-08-19T05:38:59;98146.84;;;18.00;100.00
65897;BME280;52677;50.898;10.854;2022-08-19T05:40:59;98143.16;;;18.03;100.00
65897;BME280;52677;50.898;10.854;2022-08-19T05:43:00;98138.34;;;18.04;100.00
65897;BME280;52677;50.898;10.854;2022-08-19T05:45:00;98147.56;;;18.04;100.00
65897;BME280;52677;50.898;10.854;2022-08-19T05:47:03;98156.75;;;18.05;100.00
65897;BME280;52677;50.898;10.854;2022-08-19T05:49:06;98153.75;;;18.12;100.00
65897;BME280;52677;50.898;10.854;2022-08-19T05:51:07;98153.06;;;18.08;100.00
65897;BME280;52677;50.898;10.854;2022-08-19T05:53:08;98160.56;;;18.11;100.00
65897;BME280;52677;50.898;10.854;2022-08-19T05:55:09;98157.88;;;18.07;100.00
65897;BME280;52677;50.898;10.854;2022-08-19T05:57:09;98152.97;;;18.11;100.00
65897;BME280;52677;50.898;10.854;2022-08-19T05:59:10;98160.94;;;18.13;100.00
65897;BME280;52677;50.898;10.854;2022-08-19T06:01:14;98167.75;;;18.12;100.00
65897;BME280;52677;50.898;10.854;2022-08-19T06:03:15;98160.22;;;18.09;100.00
65897;BME280;52677;50.898;10.854;2022-08-19T06:05:16;98163.31;;;18.14;97.46
65897;BME280;52677;50.898;10.854;2022-08-19T06:07:16;98173.78;;;18.10;96.62
65897;BME280;52677;50.898;10.854;2022-08-19T06:09:17;98173.00;;;18.10;96.35
65897;BME280;52677;50.898;10.854;2022-08-19T06:11:25;98181.41;;;18.10;95.34
65897;BME280;52677;50.898;10.854;2022-08-19T06:13:32;98185.78;;;18.11;95.63
65897;BME280;52677;50.898;10.854;2022-08-19T06:15:32;98188.50;;;18.14;95.05
65897;BME280;52677;50.898;10.854;2022-08-19T06:17:33;98189.91;;;18.06;96.58
65897;BME280;52677;50.898;10.854;2022-08-19T06:19:35;98195.31;;;17.97;97.12
65897;BME280;52677;50.898;10.854;2022-08-19T06:21:39;98197.38;;;17.93;96.89
65897;BME280;52677;50.898;10.854;2022-08-19T06:23:40;98197.38;;;17.93;97.68
65897;BME280;52677;50.898;10.854;2022-08-19T06:25:41;98195.91;;;17.88;96.67
65897;BME280;52677;50.898;10.854;2022-08-19T06:27:41;98199.69;;;17.78;95.86
65897;BME280;52677;50.898;10.854;2022-08-19T06:29:41;98204.16;;;17.76;96.08
65897;BME280;52677;50.898;10.854;2022-08-19T06:31:45;98201.81;;;17.74;95.65
65897;BME280;52677;50.898;10.854;2022-08-19T06:33:47;98209.22;;;17.61;96.12
65897;BME280;52677;50.898;10.854;2022-08-19T06:35:48;98208.38;;;17.64;95.30
65897;BME280;52677;50.898;10.854;2022-08-19T06:37:48;98198.91;;;17.58;95.34
65897;BME280;52677;50.898;10.854;2022-08-19T06:39:49;98204.88;;;17.60;95.32
65897;BME280;52677;50.898;10.854;2022-08-19T06:41:53;98204.38;;;17.65;95.42
65897;BME280;52677;50.898;10.854;2022-08-19T06:43:55;98209.66;;;17.59;95.50
65897;BME280;52677;50.898;10.854;2022-08-19T06:45:55;98217.38;;;17.55;95.44
65897;BME280;52677;50.898;10.854;2022-08-19T06:47:56;98210.91;;;17.58;95.97
65897;BME280;52677;50.898;10.854;2022-08-19T06:49:58;98222.09;;;17.58;95.88
65897;BME280;52677;50.898;10.854;2022-08-19T06:52:03;98232.84;;;17.60;96.05
65897;BME280;52677;50.898;10.854;2022-08-19T06:54:04;98226.88;;;17.58;95.60
65897;BME280;52677;50.898;10.854;2022-08-19T06:56:04;98228.81;;;17.61;95.36
65897;BME280;52677;50.898;10.854;2022-08-19T06:58:04;98234.06;;;17.59;94.82
65897;BME280;52677;50.898;10.854;2022-08-19T07:00:05;98231.63;;;17.61;95.08
65897;BME280;52677;50.898;10.854;2022-08-19T07:02:10;98232.00;;;17.63;94.90
65897;BME280;52677;50.898;10.854;2022-08-19T07:04:11;98245.91;;;17.66;94.92
65897;BME280;52677;50.898;10.854;2022-08-19T07:06:15;98239.88;;;17.68;94.74
65897;BME280;52677;50.898;10.854;2022-08-19T07:08:17;98240.25;;;17.70;93.85
65897;BME280;52677;50.898;10.854;2022-08-19T07:10:18;98247.44;;;17.71;92.29
65897;BME280;52677;50.898;10.854;2022-08-19T07:12:19;98239.31;;;17.77;92.06
65897;BME280;52677;50.898;10.854;2022-08-19T07:14:22;98241.53;;;17.85;90.61
65897;BME280;52677;50.898;10.854;2022-08-19T07:16:24;98245.91;;;17.86;90.55
65897;BME280;52677;50.898;10.854;2022-08-19T07:18:25;98245.91;;;17.86;91.00
65897;BME280;52677;50.898;10.854;2022-08-19T07:20:25;98248.69;;;17.86;90.72
65897;BME280;52677;50.898;10.854;2022-08-19T07:22:26;98253.88;;;17.88;90.89
65897;BME280;52677;50.898;10.854;2022-08-19T07:24:26;98255.06;;;17.87;90.80
65897;BME280;52677;50.898;10.854;2022-08-19T07:26:30;98257.28;;;17.95;90.63
65897;BME280;52677;50.898;10.854;2022-08-19T07:28:31;98248.53;;;17.93;91.12
65897;BME280;52677;50.898;10.854;2022-08-19T07:30:31;98246.97;;;17.92;91.49
65897;BME280;52677;50.898;10.854;2022-08-19T07:32:32;98257.38;;;17.92;92.00
65897;BME280;52677;50.898;10.854;2022-08-19T07:34:33;98257.72;;;17.94;92.27
65897;BME280;52677;50.898;10.854;2022-08-19T07:36:39;98257.72;;;17.94;92.60
65897;BME280;52677;50.898;10.854;2022-08-19T07:38:42;98260.53;;;17.94;92.56
65897;BME280;52677;50.898;10.854;2022-08-19T07:40:44;98263.75;;;17.92;92.34
65897;BME280;52677;50.898;10.854;2022-08-19T07:42:45;98263.72;;;17.96;93.16
65897;BME280;52677;50.898;10.854;2022-08-19T07:44:46;98266.13;;;17.94;93.70
65897;BME280;52677;50.898;10.854;2022-08-19T07:46:49;98264.84;;;17.99;93.44
65897;BME280;52677;50.898;10.854;2022-08-19T07:48:51;98265.19;;;18.01;93.75
65897;BME280;52677;50.898;10.854;2022-08-19T07:50:56;98266.41;;;18.00;93.75
65897;BME280;52677;50.898;10.854;2022-08-19T07:52:57;98275.59;;;18.00;93.51
65897;BME280;52677;50.898;10.854;2022-08-19T07:54:57;98282.34;;;18.03;92.62
65897;BME280;52677;50.898;10.854;2022-08-19T07:57:00;98282.63;;;18.08;92.78
65897;BME280;52677;50.898;10.854;2022-08-19T07:59:00;98271.41;;;18.08;90.83
65897;BME280;52677;50.898;10.854;2022-08-19T08:01:02;98273.53;;;18.04;89.78
65897;BME280;52677;50.898;10.854;2022-08-19T08:03:04;98281.09;;;18.04;90.00
65897;BME280;52677;50.898;10.854;2022-08-19T08:05:05;98289.50;;;18.04;89.26
65897;BME280;52677;50.898;10.854;2022-08-19T08:07:23;98295.53;;;18.02;86.58
65897;BME280;52677;50.898;10.854;2022-08-19T08:09:43;98290.72;;;18.03;86.86
65897;BME280;52677;50.898;10.854;2022-08-19T08:12:01;98297.13;;;18.03;86.78
65897;BME280;52677;50.898;10.854;2022-08-19T08:14:02;98299.56;;;18.01;87.12
65897;BME280;52677;50.898;10.854;2022-08-19T08:16:04;98300.00;;;18.00;86.42
65897;BME280;52677;50.898;10.854;2022-08-19T08:18:05;98297.56;;;18.02;86.79
65897;BME280;52677;50.898;10.854;2022-08-19T08:20:08;98293.91;;;18.05;85.48
65897;BME280;52677;50.898;10.854;2022-08-19T08:22:09;98305.09;;;18.05;85.70
65897;BME280;52677;50.898;10.854;2022-08-19T08:24:30;98303.44;;;18.07;85.71
65897;BME280;52677;50.898;10.854;2022-08-19T08:26:31;98302.56;;;18.10;85.26
65897;BME280;52677;50.898;10.854;2022-08-19T08:28:31;98301.34;;;18.11;85.40
65897;BME280;52677;50.898;10.854;2022-08-19T08:30:32;98294.53;;;18.12;84.67
65897;BME280;52677;50.898;10.854;2022-08-19T08:32:37;98296.53;;;18.12;84.95
65897;BME280;52677;50.898;10.854;2022-08-19T08:34:38;98301.63;;;18.17;84.36
65897;BME280;52677;50.898;10.854;2022-08-19T08:36:41;98296.38;;;18.19;83.74
65897;BME280;52677;50.898;10.854;2022-08-19T08:38:43;98298.69;;;18.24;83.65
65897;BME280;52677;50.898;10.854;2022-08-19T08:41:01;98302.19;;;18.28;83.48
65897;BME280;52677;50.898;10.854;2022-08-19T08:45:24;98293.28;;;18.33;83.46
65897;BME280;52677;50.898;10.854;2022-08-19T08:47:25;98294.06;;;18.34;83.54
65897;BME280;52677;50.898;10.854;2022-08-19T08:49:36;98301.56;;;18.37;83.36
65897;BME280;52677;50.898;10.854;2022-08-19T08:51:46;98310.72;;;18.41;82.27
65897;BME280;52677;50.898;10.854;2022-08-19T08:53:49;98308.69;;;18.41;82.36
65897;BME280;52677;50.898;10.854;2022-08-19T08:55:51;98308.97;;;18.47;82.61
65897;BME280;52677;50.898;10.854;2022-08-19T08:58:13;98310.09;;;18.49;82.20
65897;BME280;52677;50.898;10.854;2022-08-19T09:00:23;98310.81;;;18.53;81.07
65897;BME280;52677;50.898;10.854;2022-08-19T09:02:25;98315.56;;;18.57;81.14
65897;BME280;52677;50.898;10.854;2022-08-19T09:04:27;98319.47;;;18.59;81.52
65897;BME280;52677;50.898;10.854;2022-08-19T09:06:51;98325.03;;;18.63;80.72
65897;BME280;52677;50.898;10.854;2022-08-19T09:11:10;98313.66;;;18.70;79.87
65897;BME280;52677;50.898;10.854;2022-08-19T09:15:36;98322.97;;;18.83;78.08
65897;BME280;52677;50.898;10.854;2022-08-19T09:17:38;98320.50;;;18.85;77.70
65897;BME280;52677;50.898;10.854;2022-08-19T09:19:54;98322.34;;;18.92;77.60
65897;BME280;52677;50.898;10.854;2022-08-19T09:21:55;98311.06;;;18.95;77.19
65897;BME280;52677;50.898;10.854;2022-08-19T09:23:56;98314.03;;;19.04;76.92
65897;BME280;52677;50.898;10.854;2022-08-19T09:25:57;98308.25;;;19.12;75.98
65897;BME280;52677;50.898;10.854;2022-08-19T09:27:58;98306.28;;;19.25;75.93
65897;BME280;52677;50.898;10.854;2022-08-19T09:30:02;98301.28;;;19.32;74.86
65897;BME280;52677;50.898;10.854;2022-08-19T09:32:03;98294.69;;;19.39;73.77
65897;BME280;52677;50.898;10.854;2022-08-19T09:34:04;98305.53;;;19.53;72.84
65897;BME280;52677;50.898;10.854;2022-08-19T09:36:06;98308.53;;;19.62;72.24
65897;BME280;52677;50.898;10.854;2022-08-19T09:38:07;98295.50;;;19.69;71.78
65897;BME280;52677;50.898;10.854;2022-08-19T09:40:08;98297.09;;;19.70;70.69
65897;BME280;52677;50.898;10.854;2022-08-19T09:42:09;98305.66;;;19.79;69.58
65897;BME280;52677;50.898;10.854;2022-08-19T09:44:12;98293.34;;;19.89;67.99
65897;BME280;52677;50.898;10.854;2022-08-19T09:46:13;98285.38;;;19.87;68.54
65897;BME280;52677;50.898;10.854;2022-08-19T09:48:13;98283.59;;;20.06;66.92
65897;BME280;52677;50.898;10.854;2022-08-19T09:50:13;98288.22;;;20.13;67.71
65897;BME280;52677;50.898;10.854;2022-08-19T09:52:14;98294.53;;;20.30;67.91
65897;BME280;52677;50.898;10.854;2022-08-19T09:54:16;98299.13;;;20.24;66.14
65897;BME280;52677;50.898;10.854;2022-08-19T09:56:18;98301.38;;;20.16;65.21
65897;BME280;52677;50.898;10.854;2022-08-19T09:58:18;98302.53;;;20.31;65.63
65897;BME280;52677;50.898;10.854;2022-08-19T10:00:19;98299.91;;;20.24;65.44
65897;BME280;52677;50.898;10.854;2022-08-19T10:02:20;98298.22;;;20.27;65.73
65897;BME280;52677;50.898;10.854;2022-08-19T10:04:21;98298.59;;;20.29;65.22
65897;BME280;52677;50.898;10.854;2022-08-19T10:06:24;98301.97;;;20.36;65.36
65897;BME280;52677;50.898;10.854;2022-08-19T10:08:34;98305.78;;;20.42;64.86
65897;BME280;52677;50.898;10.854;2022-08-19T10:10:35;98309.81;;;20.41;64.50
65897;BME280;52677;50.898;10.854;2022-08-19T10:12:36;98313.25;;;20.49;63.17
65897;BME280;52677;50.898;10.854;2022-08-19T10:14:37;98315.06;;;20.14;63.59
65897;BME280;52677;50.898;10.854;2022-08-19T10:16:39;98304.88;;;20.20;63.79
65897;BME280;52677;50.898;10.854;2022-08-19T10:18:42;98313.19;;;20.11;64.46
65897;BME280;52677;50.898;10.854;2022-08-19T10:20:44;98313.84;;;20.15;64.16
65897;BME280;52677;50.898;10.854;2022-08-19T10:22:45;98311.06;;;20.28;63.59
65897;BME280;52677;50.898;10.854;2022-08-19T10:24:46;98305.88;;;20.26;64.53
65897;BME280;52677;50.898;10.854;2022-08-19T10:26:46;98317.28;;;20.48;64.11
65897;BME280;52677;50.898;10.854;2022-08-19T10:28:49;98306.50;;;20.46;63.32
65897;BME280;52677;50.898;10.854;2022-08-19T10:30:49;98303.47;;;20.66;62.46
65897;BME280;52677;50.898;10.854;2022-08-19T10:32:50;98304.25;;;20.80;61.21
65897;BME280;52677;50.898;10.854;2022-08-19T10:34:50;98294.13;;;20.82;61.07
65897;BME280;52677;50.898;10.854;2022-08-19T10:36:52;98305.13;;;21.02;60.75
65897;BME280;52677;50.898;10.854;2022-08-19T10:38:54;98298.13;;;21.07;59.93
65897;BME280;52677;50.898;10.854;2022-08-19T10:41:07;98302.06;;;21.09;59.29
65897;BME280;52677;50.898;10.854;2022-08-19T10:43:07;98302.13;;;21.18;58.69
65897;BME280;52677;50.898;10.854;2022-08-19T10:45:08;98308.78;;;21.37;58.54
65897;BME280;52677;50.898;10.854;2022-08-19T10:47:10;98300.53;;;21.43;58.03
65897;BME280;52677;50.898;10.854;2022-08-19T10:49:11;98312.00;;;21.48;58.68